Time;durP1;ratioP1;P1;durP2;ratioP2;P2;SDS_P1;SDS_P2;PMS_P1;PMS_P2;Temp;Humidity;BMP_temperature;BMP_pressure;BME280_temperature;BME280_humidity;BME280_pressure;Samples;Min_cycle;Max_cycle;Signal;HPM_P1;HPM_P2
2021/06/09 00:00:46;;;;;;;;;;;11.50;99.90;;;;;;5110472;28;19954;-69
2021/06/09 00:03:12;;;;;;;;;;;11.60;99.90;;;;;;5110334;28;20405;-66
2021/06/09 00:05:39;;;;;;;;;;;11.70;99.90;;;;;;5110500;28;20369;-69
2021/06/09 00:08:06;;;;;;;;;;;11.90;99.90;;;;;;5110403;28;19908;-69
2021/06/09 00:10:33;;;;;;;;;;;11.90;99.90;;;;;;5110331;28;19908;-69
2021/06/09 00:13:00;;;;;;;;;;;11.80;99.90;;;;;;5109992;28;19915;-69
2021/06/09 00:15:27;;;;;;;;;;;11.90;99.90;;;;;;5110339;28;19912;-67
2021/06/09 00:17:54;;;;;;;;;;;11.80;99.90;;;;;;5110226;28;19963;-70
2021/06/09 00:20:22;;;;;;;;;;;11.90;99.90;;;;;;5110211;28;19915;-69
2021/06/09 00:22:49;;;;;;;;;;;11.90;99.90;;;;;;5109850;28;20384;-68
2021/06/09 00:25:17;;;;;;;;;;;12.00;99.90;;;;;;5110205;28;19915;-70
2021/06/09 00:27:44;;;;;;;;;;;12.10;99.90;;;;;;5109882;28;19912;-68
2021/06/09 00:30:12;;;;;;;;;;;12.10;99.90;;;;;;5109979;28;20393;-69
2021/06/09 00:32:39;;;;;;;;;;;12.10;99.90;;;;;;5109922;28;19908;-70
2021/06/09 00:35:06;;;;;;;;;;;12.10;99.90;;;;;;5109635;28;19977;-69
2021/06/09 00:37:33;;;;;;;;;;;12.10;99.90;;;;;;5109970;28;20363;-68
2021/06/09 00:40:00;;;;;;;;;;;12.20;99.90;;;;;;5109976;28;19953;-69
2021/06/09 00:42:26;;;;;;;;;;;12.20;99.90;;;;;;5109383;28;20023;-69
2021/06/09 00:44:53;;;;;;;;;;;12.20;99.90;;;;;;5109453;28;20003;-69
2021/06/09 00:47:23;;;;;;;;;;;12.30;99.90;;;;;;5109453;28;20002;-69
2021/06/09 00:49:50;;;;;;;;;;;12.40;99.90;;;;;;5109581;28;19961;-69
2021/06/09 00:52:22;;;;;;;;;;;12.40;99.90;;;;;;5109444;28;20397;-69
2021/06/09 00:54:49;;;;;;;;;;;12.30;99.80;;;;;;5096547;28;19916;-68
2021/06/09 00:57:16;;;;;;;;;;;12.40;99.90;;;;;;5095794;28;20354;-67
2021/06/09 00:59:42;;;;;;;;;;;12.50;99.20;;;;;;5095896;28;20382;-68
2021/06/09 01:02:09;;;;;;;;;;;12.70;99.10;;;;;;5095720;28;19968;-69
2021/06/09 01:04:35;;;;;;;;;;;12.70;97.80;;;;;;5095875;28;19915;-69
2021/06/09 01:07:03;;;;;;;;;;;12.90;97.20;;;;;;5095658;28;19908;-69
2021/06/09 01:09:30;;;;;;;;;;;13.10;97.70;;;;;;5095793;28;19908;-69
2021/06/09 01:11:57;;;;;;;;;;;13.20;97.10;;;;;;5077374;28;19912;-69
2021/06/09 01:14:25;;;;;;;;;;;13.20;96.50;;;;;;5095267;28;19912;-69
2021/06/09 01:16:52;;;;;;;;;;;13.40;96.90;;;;;;5095335;28;19962;-68
2021/06/09 01:19:22;;;;;;;;;;;13.70;96.00;;;;;;5095344;28;19962;-66
2021/06/09 01:21:49;;;;;;;;;;;13.90;96.30;;;;;;5095543;28;19912;-69
2021/06/09 01:24:16;;;;;;;;;;;14.00;95.70;;;;;;5095284;28;20375;-68
2021/06/09 01:26:44;;;;;;;;;;;13.70;95.60;;;;;;5095088;28;20321;-68
2021/06/09 01:29:11;;;;;;;;;;;13.50;96.00;;;;;;5094612;28;19953;-69
2021/06/09 01:31:38;;;;;;;;;;;13.80;95.70;;;;;;5095235;28;19952;-68
2021/06/09 01:34:05;;;;;;;;;;;13.70;94.50;;;;;;5095163;28;19908;-69
2021/06/09 01:36:36;;;;;;;;;;;13.50;96.40;;;;;;5076981;28;19908;-67
2021/06/09 01:39:13;;;;;;;;;;;13.50;96.20;;;;;;5094903;28;19957;-69
2021/06/09 01:41:43;;;;;;;;;;;13.40;94.80;;;;;;5094851;28;19920;-69
2021/06/09 01:44:11;;;;;;;;;;;13.40;96.30;;;;;;5094861;28;19915;-67
2021/06/09 01:46:38;;;;;;;;;;;13.50;94.70;;;;;;5094880;28;19915;-68
2021/06/09 01:49:08;;;;;;;;;;;13.60;95.30;;;;;;5094867;28;19908;-68
2021/06/09 01:51:35;;;;;;;;;;;13.70;95.90;;;;;;5094637;28;19953;-69
2021/06/09 01:54:03;;;;;;;;;;;13.80;94.20;;;;;;5094785;28;19908;-68
2021/06/09 01:56:29;;;;;;;;;;;13.70;95.30;;;;;;5094873;28;19908;-68
2021/06/09 01:58:56;;;;;;;;;;;13.40;93.50;;;;;;5094406;28;19908;-67
2021/06/09 02:01:23;;;;;;;;;;;13.20;94.50;;;;;;5094740;28;19982;-69
2021/06/09 02:03:50;;;;;;;;;;;13.20;95.60;;;;;;5094982;28;20306;-68
2021/06/09 02:06:16;;;;;;;;;;;13.30;95.30;;;;;;5093420;28;19912;-68
2021/06/09 02:08:43;;;;;;;;;;;13.40;94.40;;;;;;5094254;28;19908;-66
2021/06/09 02:11:10;;;;;;;;;;;13.40;95.20;;;;;;5094398;28;19951;-68
2021/06/09 02:13:36;;;;;;;;;;;13.60;94.80;;;;;;5094295;28;19965;-69
2021/06/09 02:16:03;;;;;;;;;;;13.40;93.80;;;;;;5094486;28;19912;-68
2021/06/09 02:18:30;;;;;;;;;;;13.70;95.30;;;;;;5094120;28;20289;-67
2021/06/09 02:20:58;;;;;;;;;;;13.60;93.70;;;;;;5093961;28;19984;-68
2021/06/09 02:23:27;;;;;;;;;;;13.50;93.70;;;;;;5094094;28;20015;-68
2021/06/09 02:25:59;;;;;;;;;;;13.50;95.80;;;;;;5094279;28;19908;-68
2021/06/09 02:28:26;;;;;;;;;;;13.60;94.60;;;;;;5094137;28;19908;-66
2021/06/09 02:30:54;;;;;;;;;;;13.70;93.00;;;;;;5094036;28;19959;-67
2021/06/09 02:33:21;;;;;;;;;;;13.50;93.70;;;;;;5093937;28;20000;-67
2021/06/09 02:35:49;;;;;;;;;;;13.80;93.90;;;;;;5093844;28;19908;-66
2021/06/09 02:38:17;;;;;;;;;;;13.80;93.80;;;;;;5093857;28;20007;-68
2021/06/09 02:40:44;;;;;;;;;;;13.80;92.70;;;;;;5093635;28;19915;-66
2021/06/09 02:43:11;;;;;;;;;;;13.90;92.40;;;;;;5093406;28;20374;-68
2021/06/09 02:45:39;;;;;;;;;;;13.70;93.30;;;;;;5093699;28;19966;-66
2021/06/09 02:48:07;;;;;;;;;;;13.70;92.40;;;;;;5093651;28;19908;-66
2021/06/09 02:50:34;;;;;;;;;;;13.50;93.20;;;;;;5093676;28;19933;-68
2021/06/09 02:53:13;;;;;;;;;;;13.50;93.00;;;;;;5093436;28;19912;-67
2021/06/09 02:56:05;;;;;;;;;;;13.80;93.20;;;;;;5093755;28;19909;-65
2021/06/09 02:58:47;;;;;;;;;;;14.00;93.50;;;;;;5091434;28;19908;-65
2021/06/09 03:01:24;;;;;;;;;;;13.90;91.90;;;;;;5093410;28;19908;-68
2021/06/09 03:04:08;;;;;;;;;;;13.90;93.20;;;;;;5093457;28;19913;-67
2021/06/09 03:06:49;;;;;;;;;;;13.80;92.50;;;;;;5093512;28;19908;-66
2021/06/09 03:09:33;;;;;;;;;;;13.70;92.90;;;;;;5093515;28;19908;-68
2021/06/09 03:12:35;;;;;;;;;;;13.70;93.30;;;;;;5093187;28;19908;-68
2021/06/09 03:15:11;;;;;;;;;;;13.60;93.50;;;;;;5057491;28;19908;-69
2021/06/09 03:17:44;;;;;;;;;;;13.60;93.40;;;;;;5092887;28;20024;-68
2021/06/09 03:20:14;;;;;;;;;;;13.70;93.60;;;;;;5093218;28;19954;-68
2021/06/09 03:22:57;;;;;;;;;;;13.80;93.30;;;;;;5093321;28;19959;-68
2021/06/09 03:25:35;;;;;;;;;;;14.10;92.40;;;;;;5093186;28;19988;-67
2021/06/09 03:28:21;;;;;;;;;;;14.20;92.50;;;;;;5093026;28;19915;-69
2021/06/09 03:30:58;;;;;;;;;;;14.20;91.70;;;;;;5086000;28;19913;-67
2021/06/09 03:33:29;;;;;;;;;;;14.20;91.40;;;;;;5079081;28;19973;-67
2021/06/09 03:35:59;;;;;;;;;;;13.90;90.60;;;;;;5072473;28;19909;-67
2021/06/09 03:38:31;;;;;;;;;;;13.90;92.60;;;;;;5072275;28;20430;-66
2021/06/09 03:41:00;;;;;;;;;;;13.80;91.20;;;;;;5071926;28;19916;-66
2021/06/09 03:43:28;;;;;;;;;;;13.90;92.60;;;;;;5071753;28;20360;-67
2021/06/09 03:45:56;;;;;;;;;;;14.00;91.60;;;;;;5072127;28;19998;-68
2021/06/09 03:48:25;;;;;;;;;;;13.90;92.70;;;;;;5072039;28;20379;-67
2021/06/09 03:50:51;;;;;;;;;;;14.00;91.50;;;;;;5071833;28;19995;-68
2021/06/09 03:53:18;;;;;;;;;;;13.90;92.30;;;;;;5071930;28;20019;-67
2021/06/09 03:55:47;;;;;;;;;;;13.80;91.50;;;;;;5072044;28;20129;-68
2021/06/09 03:58:16;;;;;;;;;;;13.70;91.80;;;;;;5071966;28;19908;-66
2021/06/09 04:00:43;;;;;;;;;;;13.70;91.40;;;;;;5071991;28;19915;-65
2021/06/09 04:03:11;;;;;;;;;;;13.80;90.90;;;;;;5071999;28;19923;-68
2021/06/09 04:05:40;;;;;;;;;;;14.00;91.70;;;;;;5071748;28;19920;-67
2021/06/09 04:08:09;;;;;;;;;;;14.10;90.80;;;;;;5071885;28;19909;-68
2021/06/09 04:10:37;;;;;;;;;;;13.90;90.30;;;;;;5104228;28;19912;-68
2021/06/09 04:13:03;;;;;;;;;;;13.90;91.80;;;;;;5112693;28;20301;-67
2021/06/09 04:15:30;;;;;;;;;;;13.80;91.00;;;;;;5113019;28;20358;-69
2021/06/09 04:17:58;;;;;;;;;;;13.80;91.90;;;;;;5112973;28;19912;-66
2021/06/09 04:20:27;;;;;;;;;;;13.70;92.30;;;;;;5112962;28;20347;-69
2021/06/09 04:22:54;;;;;;;;;;;13.70;93.50;;;;;;5112712;28;20336;-67
2021/06/09 04:25:21;;;;;;;;;;;13.90;93.20;;;;;;5113124;28;20388;-67
2021/06/09 04:27:48;;;;;;;;;;;13.90;93.40;;;;;;5113056;28;19907;-66
2021/06/09 04:30:16;;;;;;;;;;;14.10;94.20;;;;;;5116511;28;19915;-68
2021/06/09 04:32:55;;;;;;;;;;;14.10;94.70;;;;;;5116472;28;19994;-67
2021/06/09 04:35:26;;;;;;;;;;;14.10;94.00;;;;;;5116645;28;19908;-69
2021/06/09 04:37:53;;;;;;;;;;;14.20;93.60;;;;;;5116770;28;20008;-69
2021/06/09 04:40:23;;;;;;;;;;;14.10;93.70;;;;;;5116514;28;19964;-68
2021/06/09 04:42:51;;;;;;;;;;;13.90;94.00;;;;;;5116111;28;19931;-66
2021/06/09 04:45:18;;;;;;;;;;;13.70;94.10;;;;;;5116480;28;19908;-68
2021/06/09 04:47:46;;;;;;;;;;;13.60;94.30;;;;;;5116470;28;20266;-66
2021/06/09 04:50:16;;;;;;;;;;;13.50;95.20;;;;;;5116463;28;19908;-66
2021/06/09 04:52:43;;;;;;;;;;;13.50;94.90;;;;;;5116335;28;19911;-66
2021/06/09 04:55:11;;;;;;;;;;;13.40;95.20;;;;;;5116648;28;19908;-68
2021/06/09 04:57:38;;;;;;;;;;;13.20;94.70;;;;;;5116051;28;20285;-68
2021/06/09 05:00:06;;;;;;;;;;;13.10;95.20;;;;;;5116475;28;19911;-69
2021/06/09 05:02:33;;;;;;;;;;;13.00;96.30;;;;;;5090741;28;19916;-66
2021/06/09 05:04:59;;;;;;;;;;;13.10;96.10;;;;;;5094467;28;19915;-66
2021/06/09 05:07:26;;;;;;;;;;;13.00;95.60;;;;;;5095732;28;19908;-66
2021/06/09 05:09:53;;;;;;;;;;;13.00;96.20;;;;;;5095476;28;19908;-66
2021/06/09 05:12:25;;;;;;;;;;;12.90;96.00;;;;;;5095627;28;20274;-66
2021/06/09 05:15:07;;;;;;;;;;;12.80;97.00;;;;;;5095460;28;20320;-67
2021/06/09 05:17:37;;;;;;;;;;;12.90;96.80;;;;;;5096308;28;19991;-67
2021/06/09 05:20:05;;;;;;;;;;;12.90;97.00;;;;;;5096213;28;19999;-67
2021/06/09 05:22:33;;;;;;;;;;;13.00;97.10;;;;;;5096063;28;19923;-67
2021/06/09 05:25:04;;;;;;;;;;;13.00;96.80;;;;;;5094619;28;19908;-66
2021/06/09 05:27:31;;;;;;;;;;;13.00;97.00;;;;;;5094810;28;20004;-67
2021/06/09 05:29:58;;;;;;;;;;;13.10;96.90;;;;;;5094833;28;19908;-67
2021/06/09 05:32:25;;;;;;;;;;;13.10;96.30;;;;;;5095107;28;19908;-68
2021/06/09 05:34:52;;;;;;;;;;;13.10;96.30;;;;;;5094790;28;19908;-66
2021/06/09 05:37:19;;;;;;;;;;;12.90;96.70;;;;;;5094352;28;19908;-66
2021/06/09 05:39:46;;;;;;;;;;;12.80;97.30;;;;;;5094695;28;19908;-67
2021/06/09 05:42:13;;;;;;;;;;;12.80;97.60;;;;;;5094376;28;19920;-69
2021/06/09 05:44:44;;;;;;;;;;;12.80;98.20;;;;;;5094636;28;19916;-70
2021/06/09 05:47:11;;;;;;;;;;;12.70;98.60;;;;;;5094098;28;19908;-67
2021/06/09 05:49:38;;;;;;;;;;;12.60;98.90;;;;;;5094778;28;19908;-67
2021/06/09 05:52:04;;;;;;;;;;;12.60;99.70;;;;;;5094515;28;19949;-66
2021/06/09 05:54:38;;;;;;;;;;;12.60;99.40;;;;;;5094688;28;19908;-67
2021/06/09 05:57:06;;;;;;;;;;;12.60;99.50;;;;;;5093748;28;20506;-66
2021/06/09 05:59:36;;;;;;;;;;;12.50;99.70;;;;;;5094520;28;19912;-68
2021/06/09 06:02:03;;;;;;;;;;;12.50;99.80;;;;;;5094317;28;20282;-67
2021/06/09 06:04:30;;;;;;;;;;;12.60;99.90;;;;;;5094305;28;19908;-67
2021/06/09 06:06:57;;;;;;;;;;;12.60;99.50;;;;;;5093934;28;19916;-69
2021/06/09 06:09:25;;;;;;;;;;;12.60;99.90;;;;;;5093995;28;19918;-67
2021/06/09 06:11:52;;;;;;;;;;;12.60;99.90;;;;;;5094158;28;19914;-66
2021/06/09 06:14:19;;;;;;;;;;;12.60;99.90;;;;;;5094489;28;19954;-67
2021/06/09 06:16:53;;;;;;;;;;;12.60;99.90;;;;;;5093664;28;19998;-67
2021/06/09 06:19:20;;;;;;;;;;;12.60;99.90;;;;;;5093378;28;19968;-68
2021/06/09 06:21:47;;;;;;;;;;;12.50;99.90;;;;;;5093833;28;19938;-67
2021/06/09 06:24:16;;;;;;;;;;;12.50;99.90;;;;;;5094494;28;19956;-67
2021/06/09 06:26:47;;;;;;;;;;;12.50;99.90;;;;;;5093694;28;19951;-67
2021/06/09 06:29:14;;;;;;;;;;;12.50;99.90;;;;;;5093485;28;20312;-67
2021/06/09 06:31:41;;;;;;;;;;;12.40;99.90;;;;;;5093850;28;19908;-69
2021/06/09 06:34:08;;;;;;;;;;;12.40;99.90;;;;;;5094020;28;19912;-67
2021/06/09 06:36:36;;;;;;;;;;;12.30;99.90;;;;;;5094001;28;19954;-69
2021/06/09 06:39:04;;;;;;;;;;;12.20;99.90;;;;;;5092968;28;19908;-67
2021/06/09 06:41:31;;;;;;;;;;;12.10;99.90;;;;;;5075199;28;19912;-68
2021/06/09 06:43:59;;;;;;;;;;;12.10;99.90;;;;;;5093604;28;19968;-67
2021/06/09 06:46:26;;;;;;;;;;;12.10;99.90;;;;;;5093758;28;19914;-69
2021/06/09 06:48:55;;;;;;;;;;;12.00;99.90;;;;;;5093169;28;19908;-67
2021/06/09 06:51:23;;;;;;;;;;;12.00;99.90;;;;;;5092503;28;19908;-67
2021/06/09 06:53:50;;;;;;;;;;;12.00;99.90;;;;;;5093673;28;19947;-69
2021/06/09 06:56:20;;;;;;;;;;;11.90;99.90;;;;;;5093446;28;19912;-68
2021/06/09 06:58:49;;;;;;;;;;;11.90;99.90;;;;;;5093293;28;20393;-69
2021/06/09 07:01:23;;;;;;;;;;;11.90;99.90;;;;;;5092569;28;19912;-68
2021/06/09 07:03:50;;;;;;;;;;;11.70;99.90;;;;;;5093233;28;19916;-67
2021/06/09 07:06:17;;;;;;;;;;;11.70;99.90;;;;;;5093434;28;19915;-69
2021/06/09 07:08:44;;;;;;;;;;;11.70;99.90;;;;;;5092964;28;19987;-69
2021/06/09 07:11:11;;;;;;;;;;;11.70;99.90;;;;;;5092148;28;20248;-69
2021/06/09 07:13:38;;;;;;;;;;;11.70;99.90;;;;;;5093439;28;19954;-69
2021/06/09 07:16:06;;;;;;;;;;;11.60;99.90;;;;;;5092990;28;19943;-67
2021/06/09 07:18:35;;;;;;;;;;;11.60;99.90;;;;;;5093222;28;19908;-69
2021/06/09 07:21:02;;;;;;;;;;;11.60;99.90;;;;;;5091940;28;20004;-69
2021/06/09 07:23:29;;;;;;;;;;;11.60;99.90;;;;;;5092886;28;20278;-69
2021/06/09 07:25:56;;;;;;;;;;;11.60;99.90;;;;;;5092755;28;19912;-67
2021/06/09 07:28:22;;;;;;;;;;;11.60;99.90;;;;;;5093021;28;19908;-69
2021/06/09 07:30:50;;;;;;;;;;;11.50;99.90;;;;;;5092488;28;19954;-68
2021/06/09 07:33:17;;;;;;;;;;;11.50;99.90;;;;;;5092230;28;19912;-69
2021/06/09 07:35:43;;;;;;;;;;;11.50;99.90;;;;;;5073247;28;19991;-69
2021/06/09 07:38:19;;;;;;;;;;;11.50;99.90;;;;;;5074355;28;20265;-69
2021/06/09 07:40:49;;;;;;;;;;;11.50;99.90;;;;;;5090811;28;19953;-68
2021/06/09 07:43:18;;;;;;;;;;;11.50;99.90;;;;;;5072696;28;19924;-69
2021/06/09 07:45:46;;;;;;;;;;;11.40;99.90;;;;;;5082878;28;20290;-67
2021/06/09 07:48:16;;;;;;;;;;;11.30;99.90;;;;;;5070598;28;19913;-69
2021/06/09 07:50:45;;;;;;;;;;;11.30;99.90;;;;;;5070572;28;19908;-69
2021/06/09 07:53:12;;;;;;;;;;;11.30;99.90;;;;;;5070483;28;20458;-69
2021/06/09 07:55:42;;;;;;;;;;;11.30;99.90;;;;;;5069864;28;19935;-72
2021/06/09 07:58:09;;;;;;;;;;;11.30;99.90;;;;;;5069876;28;19916;-71
2021/06/09 08:00:36;;;;;;;;;;;11.30;99.90;;;;;;5070246;28;19914;-70
2021/06/09 08:03:03;;;;;;;;;;;11.40;99.90;;;;;;5070153;28;19927;-72
2021/06/09 08:05:31;;;;;;;;;;;11.30;99.90;;;;;;5074566;28;19909;-71
2021/06/09 08:07:58;;;;;;;;;;;11.30;99.90;;;;;;5074370;28;20381;-70
2021/06/09 08:10:26;;;;;;;;;;;11.20;99.90;;;;;;5074422;28;20359;-72
2021/06/09 08:12:53;;;;;;;;;;;11.30;99.90;;;;;;5074009;28;19970;-70
2021/06/09 08:15:20;;;;;;;;;;;11.20;99.90;;;;;;5074576;28;20009;-70
2021/06/09 08:17:48;;;;;;;;;;;11.20;99.90;;;;;;5074440;28;19916;-71
2021/06/09 08:20:17;;;;;;;;;;;11.20;99.90;;;;;;5074234;28;19919;-72
2021/06/09 08:22:46;;;;;;;;;;;11.10;99.90;;;;;;5074076;28;19970;-70
2021/06/09 08:25:15;;;;;;;;;;;11.00;99.90;;;;;;5073974;28;19917;-71
2021/06/09 08:27:42;;;;;;;;;;;11.00;99.90;;;;;;5074104;28;19918;-69
2021/06/09 08:30:09;;;;;;;;;;;11.00;99.90;;;;;;5074399;28;19978;-70
2021/06/09 08:32:36;;;;;;;;;;;10.90;99.90;;;;;;5074366;28;19939;-71
2021/06/09 08:35:04;;;;;;;;;;;10.90;99.90;;;;;;5074048;28;20326;-69
2021/06/09 08:37:31;;;;;;;;;;;10.90;99.90;;;;;;5073815;28;19917;-71
2021/06/09 08:39:58;;;;;;;;;;;10.90;99.90;;;;;;5074079;28;19909;-71
2021/06/09 08:42:30;;;;;;;;;;;10.90;99.90;;;;;;5073862;28;19999;-70
2021/06/09 08:44:58;;;;;;;;;;;10.80;99.90;;;;;;5073825;28;19924;-68
2021/06/09 08:47:25;;;;;;;;;;;10.80;99.90;;;;;;5073907;28;19908;-71
2021/06/09 08:49:53;;;;;;;;;;;10.80;99.90;;;;;;5073761;28;19908;-72
2021/06/09 08:52:21;;;;;;;;;;;10.80;99.90;;;;;;5055435;28;19974;-71
2021/06/09 08:54:48;;;;;;;;;;;10.80;99.90;;;;;;5073400;28;19940;-71
2021/06/09 08:57:15;;;;;;;;;;;10.80;99.90;;;;;;5074202;28;20355;-68
2021/06/09 08:59:44;;;;;;;;;;;10.80;99.90;;;;;;5073853;28;19991;-71
2021/06/09 09:02:12;;;;;;;;;;;10.80;99.90;;;;;;5073626;28;19939;-70
2021/06/09 09:04:39;;;;;;;;;;;10.80;99.90;;;;;;5073292;28;19920;-71
2021/06/09 09:07:07;;;;;;;;;;;10.70;99.90;;;;;;5075276;28;19909;-71
2021/06/09 09:09:34;;;;;;;;;;;10.70;99.90;;;;;;5075316;28;19908;-70
2021/06/09 09:12:01;;;;;;;;;;;10.70;99.90;;;;;;5075348;28;20046;-71
2021/06/09 09:14:27;;;;;;;;;;;10.80;99.90;;;;;;5074927;28;20307;-71
2021/06/09 09:17:01;;;;;;;;;;;10.80;99.90;;;;;;5075259;28;19915;-70
2021/06/09 09:19:29;;;;;;;;;;;10.70;99.90;;;;;;5075204;28;19917;-71
2021/06/09 09:21:55;;;;;;;;;;;10.70;99.90;;;;;;5075089;28;19939;-67
2021/06/09 09:24:36;;;;;;;;;;;10.70;99.90;;;;;;5075218;28;19909;-69
2021/06/09 09:27:03;;;;;;;;;;;10.70;99.90;;;;;;5074906;28;20019;-69
2021/06/09 09:29:29;;;;;;;;;;;10.70;99.90;;;;;;5075249;28;19909;-69
2021/06/09 09:31:58;;;;;;;;;;;10.70;99.90;;;;;;5075388;28;19909;-69
2021/06/09 09:34:31;;;;;;;;;;;10.70;99.90;;;;;;5074354;28;19995;-69
2021/06/09 09:37:09;;;;;;;;;;;10.60;99.90;;;;;;5074500;28;19909;-69
2021/06/09 09:39:38;;;;;;;;;;;10.60;99.90;;;;;;5074863;28;19955;-68
2021/06/09 09:42:25;;;;;;;;;;;10.70;99.90;;;;;;5074692;28;19943;-68
2021/06/09 09:44:52;;;;;;;;;;;10.60;99.90;;;;;;5074695;28;19908;-67
2021/06/09 09:47:21;;;;;;;;;;;10.60;99.90;;;;;;5074243;28;19908;-69
2021/06/09 09:49:49;;;;;;;;;;;10.60;99.90;;;;;;5074740;28;20023;-67
2021/06/09 09:52:16;;;;;;;;;;;10.60;99.90;;;;;;5074524;28;19978;-66
2021/06/09 09:54:44;;;;;;;;;;;10.50;99.90;;;;;;5074594;28;19943;-68
2021/06/09 09:57:15;;;;;;;;;;;10.40;99.90;;;;;;5074637;28;20011;-69
2021/06/09 09:59:53;;;;;;;;;;;10.40;99.90;;;;;;5074082;28;20310;-69
2021/06/09 10:02:20;;;;;;;;;;;10.50;99.90;;;;;;5073969;28;20367;-67
2021/06/09 10:04:52;;;;;;;;;;;10.50;99.90;;;;;;5074103;28;19939;-68
2021/06/09 10:07:19;;;;;;;;;;;10.60;99.90;;;;;;5074033;28;19989;-69
2021/06/09 10:09:47;;;;;;;;;;;10.60;99.90;;;;;;5074057;28;20325;-68
2021/06/09 10:12:15;;;;;;;;;;;10.60;99.90;;;;;;5073883;28;19913;-67
2021/06/09 10:14:50;;;;;;;;;;;10.50;99.90;;;;;;5074034;28;19969;-67
2021/06/09 10:17:18;;;;;;;;;;;10.40;99.90;;;;;;5073397;28;19912;-67
2021/06/09 10:19:49;;;;;;;;;;;10.30;99.90;;;;;;5073967;28;19908;-67
2021/06/09 10:22:18;;;;;;;;;;;10.30;99.90;;;;;;5074090;28;19917;-68
2021/06/09 10:24:54;;;;;;;;;;;10.20;99.90;;;;;;5073511;28;19909;-67
2021/06/09 10:27:32;;;;;;;;;;;10.20;99.90;;;;;;5073298;28;19915;-68
2021/06/09 10:29:59;;;;;;;;;;;10.20;99.90;;;;;;5073968;28;20288;-67
2021/06/09 10:32:27;;;;;;;;;;;10.20;99.90;;;;;;5073537;28;20374;-66
2021/06/09 10:34:53;;;;;;;;;;;10.20;99.90;;;;;;5055682;28;19931;-66
2021/06/09 10:37:20;;;;;;;;;;;10.20;99.90;;;;;;5073627;28;19951;-66
2021/06/09 10:39:47;;;;;;;;;;;10.10;99.90;;;;;;5073696;28;19916;-66
2021/06/09 10:42:15;;;;;;;;;;;10.00;99.90;;;;;;5073513;28;19920;-68
2021/06/09 10:44:45;;;;;;;;;;;10.00;99.90;;;;;;5073858;28;19909;-67
2021/06/09 10:47:14;;;;;;;;;;;10.00;99.90;;;;;;5073273;28;19930;-66
2021/06/09 10:49:41;;;;;;;;;;;10.00;99.90;;;;;;5073569;28;20274;-68
2021/06/09 10:52:08;;;;;;;;;;;10.00;99.90;;;;;;5073281;28;19908;-68
2021/06/09 10:54:35;;;;;;;;;;;9.90;99.90;;;;;;5073419;28;19943;-69
2021/06/09 10:57:02;;;;;;;;;;;10.00;99.90;;;;;;5055577;28;19908;-69
2021/06/09 10:59:31;;;;;;;;;;;9.90;99.90;;;;;;5074185;28;19908;-68
2021/06/09 11:02:01;;;;;;;;;;;9.90;99.90;;;;;;5073395;28;20098;-68
2021/06/09 11:04:32;;;;;;;;;;;9.80;99.90;;;;;;5074209;28;20271;-68
2021/06/09 11:06:59;;;;;;;;;;;9.80;99.90;;;;;;5076300;28;19944;-67
2021/06/09 11:09:30;;;;;;;;;;;9.80;99.90;;;;;;5075994;28;19915;-67
2021/06/09 11:12:12;;;;;;;;;;;9.80;99.90;;;;;;5076658;28;19919;-67
2021/06/09 11:14:45;;;;;;;;;;;9.80;99.90;;;;;;5073784;28;19954;-67
2021/06/09 11:17:12;;;;;;;;;;;9.80;99.90;;;;;;5072818;28;19908;-68
2021/06/09 11:19:42;;;;;;;;;;;9.80;99.90;;;;;;5073144;28;19908;-67
2021/06/09 11:22:23;;;;;;;;;;;9.70;99.90;;;;;;5073362;28;19959;-67
2021/06/09 11:25:18;;;;;;;;;;;9.70;99.90;;;;;;5072977;28;19919;-68
2021/06/09 11:27:53;;;;;;;;;;;9.80;99.90;;;;;;5064291;28;19908;-67
2021/06/09 11:30:26;;;;;;;;;;;9.70;99.90;;;;;;5073399;28;19908;-66
2021/06/09 11:32:54;;;;;;;;;;;9.60;99.90;;;;;;5088075;28;19909;-68
2021/06/09 11:35:41;;;;;;;;;;;9.60;99.90;;;;;;5073211;28;19996;-68
2021/06/09 11:38:13;;;;;;;;;;;9.60;99.90;;;;;;5072733;28;19913;-69
2021/06/09 11:40:58;;;;;;;;;;;9.60;99.90;;;;;;5072982;28;20359;-68
2021/06/09 11:43:33;;;;;;;;;;;9.60;99.90;;;;;;5072694;28;19928;-68
2021/06/09 11:46:01;;;;;;;;;;;9.60;99.90;;;;;;5072856;28;19909;-67
2021/06/09 11:48:29;;;;;;;;;;;9.60;99.90;;;;;;5072887;28;19912;-68
2021/06/09 11:51:17;;;;;;;;;;;9.50;99.90;;;;;;5072758;28;19916;-67
2021/06/09 11:53:45;;;;;;;;;;;9.50;99.90;;;;;;5072816;28;20015;-67
2021/06/09 11:56:16;;;;;;;;;;;9.50;99.90;;;;;;5072987;28;19909;-68
2021/06/09 11:58:43;;;;;;;;;;;9.40;99.90;;;;;;5073018;28;19915;-66
2021/06/09 12:01:11;;;;;;;;;;;9.40;99.90;;;;;;5072177;28;19916;-66
2021/06/09 12:03:40;;;;;;;;;;;9.50;99.90;;;;;;5072827;28;19924;-67
2021/06/09 12:06:24;;;;;;;;;;;9.50;99.90;;;;;;5054883;28;19971;-67
2021/06/09 12:08:55;;;;;;;;;;;9.50;99.90;;;;;;5072679;28;19931;-67
2021/06/09 12:11:25;;;;;;;;;;;9.40;99.90;;;;;;5072839;28;19908;-67
2021/06/09 12:13:52;;;;;;;;;;;9.40;99.90;;;;;;5072716;28;19909;-66
2021/06/09 12:16:21;;;;;;;;;;;9.40;99.90;;;;;;5087599;28;19912;-66
2021/06/09 12:18:49;;;;;;;;;;;9.40;99.90;;;;;;5072322;28;19908;-68
2021/06/09 12:21:17;;;;;;;;;;;9.40;99.90;;;;;;5072630;28;19954;-67
2021/06/09 12:23:57;;;;;;;;;;;9.40;99.90;;;;;;5072545;28;19917;-68
2021/06/09 12:26:24;;;;;;;;;;;9.40;99.90;;;;;;5072651;28;20312;-68
2021/06/09 12:29:04;;;;;;;;;;;9.40;99.90;;;;;;5072252;28;20279;-67
2021/06/09 12:31:31;;;;;;;;;;;9.30;99.90;;;;;;5071726;28;20283;-68
2021/06/09 12:33:58;;;;;;;;;;;9.30;99.90;;;;;;5072336;28;19909;-68
2021/06/09 12:36:25;;;;;;;;;;;9.30;99.90;;;;;;5072497;28;19915;-67
2021/06/09 12:38:51;;;;;;;;;;;9.30;99.90;;;;;;5072689;28;19908;-67
2021/06/09 12:41:24;;;;;;;;;;;9.30;99.90;;;;;;5073419;28;20053;-68
2021/06/09 12:43:51;;;;;;;;;;;9.20;99.90;;;;;;5074233;28;19924;-68
2021/06/09 12:46:19;;;;;;;;;;;9.20;99.90;;;;;;5071907;28;19924;-69
2021/06/09 12:48:50;;;;;;;;;;;9.20;99.90;;;;;;5072162;28;19916;-68
2021/06/09 12:51:17;;;;;;;;;;;9.20;99.90;;;;;;5075463;28;19961;-69
2021/06/09 12:53:43;;;;;;;;;;;9.20;99.90;;;;;;5075765;28;19962;-69
2021/06/09 12:56:10;;;;;;;;;;;9.10;99.90;;;;;;5076075;28;19908;-68
2021/06/09 12:58:38;;;;;;;;;;;9.00;99.90;;;;;;5075866;28;19998;-67
2021/06/09 13:01:06;;;;;;;;;;;9.10;99.90;;;;;;5075681;28;19915;-68
2021/06/09 13:03:36;;;;;;;;;;;9.10;99.90;;;;;;5075826;28;19920;-68
2021/06/09 13:06:03;;;;;;;;;;;9.20;99.90;;;;;;5075734;28;19908;-67
2021/06/09 13:08:48;;;;;;;;;;;9.10;99.90;;;;;;5075722;28;19931;-69
2021/06/09 13:11:16;;;;;;;;;;;9.10;99.90;;;;;;5075861;28;19912;-68
2021/06/09 13:13:44;;;;;;;;;;;9.10;99.90;;;;;;5075685;28;19916;-67
2021/06/09 13:16:14;;;;;;;;;;;9.10;99.90;;;;;;5075664;28;19920;-67
2021/06/09 13:18:48;;;;;;;;;;;9.20;99.90;;;;;;5075793;28;19916;-67
2021/06/09 13:21:20;;;;;;;;;;;9.30;99.90;;;;;;5075441;28;20263;-67
2021/06/09 13:23:47;;;;;;;;;;;9.30;99.90;;;;;;5075170;28;20347;-68
2021/06/09 13:26:14;;;;;;;;;;;9.30;99.90;;;;;;5075432;28;19962;-67
2021/06/09 13:28:41;;;;;;;;;;;9.30;99.90;;;;;;5075478;28;19916;-66
2021/06/09 13:31:08;;;;;;;;;;;9.30;99.90;;;;;;5075336;28;19909;-66
2021/06/09 13:33:35;;;;;;;;;;;9.40;99.90;;;;;;5075295;28;19908;-66
2021/06/09 13:36:02;;;;;;;;;;;9.30;99.90;;;;;;5075111;28;20279;-67
2021/06/09 13:38:29;;;;;;;;;;;9.20;99.90;;;;;;5075055;28;20346;-66
2021/06/09 13:40:56;;;;;;;;;;;9.20;99.90;;;;;;5075163;28;20007;-67
2021/06/09 13:43:24;;;;;;;;;;;9.10;99.90;;;;;;5090503;28;20011;-67
2021/06/09 13:45:56;;;;;;;;;;;9.10;99.90;;;;;;5075171;28;19908;-66
2021/06/09 13:48:24;;;;;;;;;;;9.10;99.90;;;;;;5075103;28;19908;-66
2021/06/09 13:50:55;;;;;;;;;;;9.00;99.90;;;;;;5074730;28;19908;-66
2021/06/09 13:53:23;;;;;;;;;;;9.00;99.90;;;;;;5074787;28;20389;-67
2021/06/09 13:55:50;;;;;;;;;;;9.00;99.90;;;;;;5074975;28;19952;-67
2021/06/09 13:58:22;;;;;;;;;;;8.90;99.90;;;;;;5090244;28;19908;-67
2021/06/09 14:00:50;;;;;;;;;;;8.90;99.90;;;;;;5074483;28;19908;-66
2021/06/09 14:03:23;;;;;;;;;;;8.80;99.90;;;;;;5074471;28;19920;-66
2021/06/09 14:05:50;;;;;;;;;;;8.80;99.90;;;;;;5074489;28;19963;-67
2021/06/09 14:08:18;;;;;;;;;;;8.80;99.90;;;;;;5074315;28;20033;-67
2021/06/09 14:10:50;;;;;;;;;;;8.90;99.90;;;;;;5074819;28;19909;-68
2021/06/09 14:13:19;;;;;;;;;;;8.90;99.90;;;;;;5075057;28;19913;-68
2021/06/09 14:15:55;;;;;;;;;;;8.90;99.90;;;;;;5075452;28;19916;-68
2021/06/09 14:18:40;;;;;;;;;;;8.90;99.90;;;;;;5074829;28;19946;-69
2021/06/09 14:21:08;;;;;;;;;;;8.90;99.90;;;;;;5074053;28;20015;-68
2021/06/09 14:23:38;;;;;;;;;;;8.90;99.90;;;;;;5074153;28;19970;-69
2021/06/09 14:26:07;;;;;;;;;;;8.90;99.90;;;;;;5074016;28;19915;-67
2021/06/09 14:28:35;;;;;;;;;;;8.90;99.90;;;;;;5073920;28;19908;-67
2021/06/09 14:31:03;;;;;;;;;;;8.80;99.90;;;;;;5073865;28;19916;-68
2021/06/09 14:38:40;;;;;;;;;;;8.70;99.90;;;;;;5073735;28;19908;-67